EW0533 Weather Reports


Display with metric or nautical units.
time (UTC)temp
F
wind
direction
speed
MPH
gust
MPH
rain 1hr
in
rain 24hr
in
rain mn
in
humidity
%
barometer
mb
20210922170052 69 189 2.0 6.0 0.00 0.00 0.00 36 1022.5
20210922164529 68 124 1.0 7.0 0.00 0.00 0.00 37 1022.9
20210922163056 68 112 2.0 5.0 0.00 0.00 0.00 36 1023.1
20210922161526 67 100 1.0 2.0 0.00 0.00 0.00 37 1023.4
20210922160036 65 108 0.0 2.0 0.00 0.00 0.00 39 1023.4
20210922154507 63 7 1.0 4.0 0.00 0.00 0.00 42 1023.5
20210922153001 62 19 1.0 5.0 0.00 0.00 0.00 43 1023.5
20210922151627 62 38 1.0 4.0 0.00 0.00 0.00 43 1023.6
20210922150124 59 39 2.0 5.0 0.00 0.00 0.00 46 1023.7
20210922144656 59 124 1.0 4.0 0.00 0.00 0.00 46 1023.7
20210922143124 59 93 0.0 2.0 0.00 0.00 0.00 47 1023.9
20210922141641 57 91 0.0 1.0 0.00 0.00 0.00 49 1023.9
20210922140123 56 51 0.0 1.0 0.00 0.00 0.00 50 1024.0
20210922134634 55 276 0.0 1.0 0.00 0.00 0.00 52 1024.0
20210922133317 52 276 0.0 0.0 0.00 0.00 0.00 55 1023.8
20210922131733 48 274 0.0 0.0 0.00 0.00 0.00 60 1023.9
20210922130140 48 275 0.0 0.0 0.00 0.00 0.00 58 1023.8
20210922124625 48 275 0.0 0.0 0.00 0.00 0.00 57 1023.7
20210922123055 49 273 0.0 0.0 0.00 0.00 0.00 59 1023.6
20210922121630 49 273 0.0 0.0 0.00 0.00 0.00 58 1023.4
20210922120102 49 273 0.0 1.0 0.00 0.00 0.00 57 1023.5
20210922114554 49 271 0.0 0.0 0.00 0.00 0.00 56 1023.5
20210922113120 50 275 0.0 0.0 0.00 0.00 0.00 55 1023.4
20210922111538 51 60 0.0 0.0 0.00 0.00 0.00 54 1023.3
20210922110043 52 39 0.0 0.0 0.00 0.00 0.00 53 1023.3
20210922104538 53 15 0.0 1.0 0.00 0.00 0.00 51 1023.2
20210922103034 53 38 0.0 1.0 0.00 0.00 0.00 52 1023.1
20210922101615 53 44 0.0 2.0 0.00 0.00 0.00 53 1023.0
20210922100033 52 38 0.0 0.0 0.00 0.00 0.00 52 1023.0
20210922094603 52 60 0.0 0.0 0.00 0.00 0.00 53 1023.0
20210922093035 52 265 0.0 1.0 0.00 0.00 0.00 52 1023.0
20210922091530 52 272 0.0 1.0 0.00 0.00 0.00 50 1023.2
20210922090045 53 271 0.0 0.0 0.00 0.00 0.00 49 1023.1
20210922084540 54 77 0.0 0.0 0.00 0.00 0.00 48 1023.1
20210922083019 55 57 0.0 1.0 0.00 0.00 0.00 48 1023.0
20210922081516 55 55 0.0 1.0 0.00 0.00 0.00 47 1023.0
20210922080025 56 250 0.0 0.0 0.00 0.00 0.00 46 1023.0
20210922074514 56 267 0.0 0.0 0.00 0.00 0.00 45 1022.9
20210922073010 55 275 0.0 3.0 0.00 0.00 0.00 46 1022.7
20210922071533 56 257 0.0 3.0 0.00 0.00 0.00 44 1022.6
20210922070006 57 275 1.0 4.0 0.00 0.00 0.00 42 1022.5
20210922064724 59 49 0.0 0.0 0.00 0.00 0.00 41 1022.4
20210922063145 59 129 0.0 2.0 0.00 0.00 0.00 40 1022.4
20210922061622 60 280 1.0 3.0 0.00 0.00 0.00 39 1022.3
20210922060217 60 255 2.0 4.0 0.00 0.00 0.00 38 1022.3
20210922054656 60 259 0.0 0.0 0.00 0.00 0.00 37 1022.1
20210922053139 61 122 0.0 0.0 0.00 0.00 0.00 36 1021.8
20210922051623 63 122 0.0 3.0 0.00 0.00 0.00 35 1021.8
20210922050104 63 269 0.0 4.0 0.00 0.00 0.00 35 1021.6
20210922044628 62 266 1.0 4.0 0.00 0.00 0.00 35 1021.5
20210922041642 64 282 2.0 4.0 0.00 0.00 0.00 33 1021.1
20210922040229 64 285 2.0 5.0 0.00 0.00 0.00 32 1021.0
20210922034630 65 272 3.0 5.0 0.00 0.00 0.00 31 1020.9
20210922033053 66 271 2.0 4.0 0.00 0.00 0.00 30 1020.8
20210922031625 66 273 2.0 4.0 0.00 0.00 0.00 30 1020.6
20210922030048 67 272 2.0 3.0 0.00 0.00 0.00 29 1020.5
20210922024608 67 259 1.0 4.0 0.00 0.00 0.00 29 1020.5
20210922023057 68 265 1.0 3.0 0.00 0.00 0.00 28 1020.2
20210922021619 69 259 1.0 3.0 0.00 0.00 0.00 27 1019.9
20210922020133 70 199 0.0 3.0 0.00 0.00 0.00 25 1019.6
20210922014558 72 265 0.0 0.0 0.00 0.00 0.00 21 1019.4
20210922013138 73 265 0.0 1.0 0.00 0.00 0.00 21 1019.2
20210922011606 74 210 0.0 1.0 0.00 0.00 0.00 20 1019.1
20210922010149 77 243 0.0 1.0 0.00 0.00 0.00 17 1019.0
20210922004614 78 115 0.0 1.0 0.00 0.00 0.00 16 1018.9
20210922003117 80 220 0.0 1.0 0.00 0.00 0.00 15 1018.9
20210922001630 78 137 0.0 2.0 0.00 0.00 0.00 16 1018.9
20210922000114 80 114 0.0 2.0 0.00 0.00 0.00 15 1018.9
20210921234557 79 268 0.0 2.0 0.00 0.00 0.00 15 1018.9
20210921233037 78 76 0.0 4.0 0.00 0.00 0.00 15 1018.9
20210921231545 79 108 0.0 3.0 0.00 0.00 0.00 18 1018.9
20210921230052 79 149 0.0 3.0 0.00 0.00 0.00 15 1018.9
20210921224538 79 348 0.0 4.0 0.00 0.00 0.00 14 1019.0
20210921223041 81 101 1.0 3.0 0.00 0.00 0.00 13 1019.1
20210921221536 80 115 1.0 3.0 0.00 0.00 0.00 14 1019.1
20210921220031 78 115 0.0 7.0 0.00 0.00 0.00 14 1019.3
20210921214533 78 23 0.0 4.0 0.00 0.00 0.00 14 1019.4
20210921213030 79 42 0.0 4.0 0.00 0.00 0.00 16 1019.6
20210921211533 78 269 4.0 8.0 0.00 0.00 0.00 15 1019.7
20210921210109 77 264 0.0 6.0 0.00 0.00 0.00 16 1019.8
20210921204524 78 110 1.0 8.0 0.00 0.00 0.00 15 1019.9
20210921203024 78 2 0.0 2.0 0.00 0.00 0.00 17 1020.1
20210921201525 78 295 2.0 6.0 0.00 0.00 0.00 15 1020.2
20210921200024 76 283 2.0 6.0 0.00 0.00 0.00 16 1020.3
20210921194531 76 31 1.0 3.0 0.00 0.00 0.00 16 1020.6
20210921193023 76 203 1.0 7.0 0.00 0.00 0.00 17 1020.8
20210921191519 75 214 0.0 7.0 0.00 0.00 0.00 20 1020.9
20210921190028 75 275 2.0 7.0 0.00 0.00 0.00 21 1021.2
20210921184508 74 179 2.0 9.0 0.00 0.00 0.00 22 1021.3
20210921183003 74 259 1.0 6.0 0.00 0.00 0.00 22 1021.4
20210921180012 73 53 1.0 6.0 0.00 0.00 0.00 23 1021.5
20210921174654 73 127 0.0 3.0 0.00 0.00 0.00 24 1021.6
20210921173307 73 33 0.0 0.0 0.00 0.00 0.00 25 1021.6
20210921171659 71 101 1.0 5.0 0.00 0.00 0.00 26 1021.7